Latest Weather Observations for Naracoorte

IDS60801

Issued at 4:35 pm CDT Monday 24 November 2014 (issued every 30 minutes, with the page automatically refreshed every 10 minutes)

About weather observations | Map of weather stations | Latest weather observations for SA | Other Formats
Station Details ID: 026099 Name: NARACOORTE AERODROME Lat: -36.98 Lon: 140.73 Height: 49.72 m
Data from the previous 72 hours. | See also: Recent months at Naracoorte
Date/Time
CDT
Temp
°C
App
Temp
°C
Dew
Point
Rel
Hum
%
Delta-T
°C
Wind Press
QNH
hPa
Press
MSL
hPa
Rain
since 9 am
mm
Dir
 
Spd
km/h
Gust
km/h
Spd
kts
Gust
kts
24/04:30pm 19.8 10.2 3.5 34 7.7 SW 43 57 23 31 1011.7 1011.6 0.2
24/04:00pm 20.8 12.2 4.4 34 8.0 WSW 39 54 21 29 1011.7 1011.6 0.2
24/03:34pm 20.6 12.9 7.2 42 6.9 SW 37 56 20 30 1011.5 1011.4 0.2
24/03:30pm 21.0 14.1 8.9 46 6.4 SW 35 46 19 25 1011.5 1011.4 0.2
24/03:00pm 21.6 14.1 7.8 41 7.2 WSW 37 52 20 28 1011.5 1011.4 0.2
24/02:30pm 19.5 13.0 9.1 51 5.5 WSW 33 46 18 25 1011.5 1011.4 0.2
24/02:00pm 17.7 12.0 11.0 65 3.6 SW 32 43 17 23 1011.6 1011.5 0.2
24/01:30pm 16.1 9.2 10.2 68 3.1 SW 37 50 20 27 1011.7 1011.6 0.2
24/01:00pm 16.4 9.5 12.8 79 2.0 SW 41 56 22 30 1011.3 1011.2 0.2
24/12:30pm 20.6 13.4 13.1 62 4.3 SW 43 52 23 28 1010.5 1010.4 0.2
24/12:20pm 20.1 14.2 12.3 61 4.4 WSW 35 54 19 29 1010.3 1010.2 0.2
24/12:00pm 21.1 16.7 11.7 55 5.3 W 26 33 14 18 1010.2 1010.1 0.2
24/11:30am 20.9 16.4 11.3 54 5.3 WSW 26 39 14 21 1010.3 1010.2 0.2
24/11:00am 20.7 17.4 11.6 56 5.1 SW 20 32 11 17 1010.4 1010.3 0.0
24/10:30am 20.4 17.4 12.4 60 4.5 SW 20 30 11 16 1010.5 1010.4 0.0
24/10:00am 19.0 15.6 11.1 60 4.3 S 20 28 11 15 1010.3 1010.2 0.0
24/09:30am 18.0 14.1 12.0 68 3.3 SSW 24 30 13 16 1010.2 1010.1 0.0
24/09:00am 16.3 13.9 12.8 80 1.9 S 17 22 9 12 1010.2 1010.1 2.0
24/08:30am 15.1 12.6 13.5 90 0.9 S 19 24 10 13 1009.1 1009.0 2.0
24/08:00am 13.8 11.2 12.0 89 1.0 S 17 20 9 11 1009.2 1009.1 1.6
24/07:30am 13.4 10.3 12.1 92 0.7 SSW 20 30 11 16 1009.3 1009.2 1.6
24/07:00am 13.3 10.4 12.2 93 0.6 ESE 19 20 10 11 1007.8 1007.7 1.6
24/06:30am 13.1 11.3 12.0 93 0.6 S 13 17 7 9 1009.3 1009.2 1.4
24/06:00am 13.5 13.8 12.1 91 0.8 S 2 9 1 5 1009.0 1008.9 1.4
24/05:30am 13.4 12.8 11.8 90 0.9 ESE 6 9 3 5 1009.0 1008.9 1.4
24/05:00am 13.1 10.9 12.0 93 0.6 SSE 15 20 8 11 1008.1 1008.0 1.4
24/04:30am 13.1 11.3 12.0 93 0.6 S 13 20 7 11 1007.9 1007.8 1.2
24/04:00am 13.1 11.4 11.3 89 1.0 SE 11 17 6 9 1007.7 1007.6 0.2
24/03:30am 12.7 10.4 10.4 86 1.2 S 13 15 7 8 1007.7 1007.6 0.0
24/03:00am 12.6 10.2 10.0 84 1.3 S 13 15 7 8 1008.0 1007.9 0.0
24/02:30am 13.7 11.6 9.9 78 2.0 S 11 15 6 8 1008.1 1008.0 0.0
24/02:00am 12.5 11.3 10.4 87 1.1 E 7 9 4 5 1007.8 1007.7 0.0
24/01:30am 12.2 10.1 9.8 85 1.2 SSE 11 13 6 7 1008.9 1008.8 0.0
24/01:00am 11.8 10.4 9.4 85 1.2 SE 7 9 4 5 1009.6 1009.5 0.0
24/12:30am 12.2 10.0 9.4 83 1.4 S 11 15 6 8 1010.4 1010.3 0.0
24/12:00am 13.2 10.3 9.8 80 1.7 SSE 15 17 8 9 1011.0 1010.9 0.0
 
Date/Time
CDT
Temp
°C
App
Temp
°C
Dew
Point
Rel
Hum
%
Delta-T
°C
Wind Press
QNH
hPa
Press
MSL
hPa
Rain
since 9 am
mm
Dir
 
Spd
km/h
Gust
km/h
Spd
kts
Gust
kts
23/11:30pm 13.2 10.7 9.8 80 1.7 SSE 13 17 7 9 1011.3 1011.2 0.0
23/11:00pm 14.0 11.1 9.8 76 2.2 SSE 15 17 8 9 1011.5 1011.4 0.0
23/10:30pm 14.2 11.3 9.6 74 2.4 S 15 17 8 9 1011.6 1011.5 0.0
23/10:00pm 15.3 13.2 9.9 70 2.8 SSE 11 13 6 7 1011.9 1011.9 0.0
23/09:30pm 15.7 13.1 10.7 72 2.7 SSE 15 17 8 9 1011.7 1011.6 0.0
23/09:00pm 17.1 14.2 10.9 67 3.3 S 17 19 9 10 1011.7 1011.6 0.0
23/08:30pm 18.4 15.9 11.0 62 4.0 S 15 19 8 10 1011.5 1011.4 0.0
23/08:00pm 20.0 17.1 8.0 46 6.2 SSW 13 15 7 8 1011.1 1011.0 0.0
23/07:30pm 21.7 17.4 7.2 39 7.5 SSW 19 24 10 13 1011.1 1011.0 0.0
23/07:00pm 23.9 18.9 3.8 27 9.9 SW 19 22 10 12 1011.1 1011.0 0.0
23/06:30pm 25.1 19.6 1.9 22 11.1 W 20 28 11 15 1011.7 1011.6 0.0
23/06:00pm 26.2 20.9 2.8 22 11.5 WNW 20 24 11 13 1010.9 1010.8 0.0
23/05:30pm 26.9 23.8 3.4 22 11.7 WSW 9 15 5 8 1010.2 1010.1 0.0
23/05:00pm 26.3 22.2 4.1 24 11.1 W 15 22 8 12 1010.2 1010.1 0.0
23/04:30pm 26.5 22.5 3.1 22 11.6 W 13 24 7 13 1010.5 1010.4 0.0
23/04:00pm 26.4 21.0 2.3 21 11.7 W 20 35 11 19 1011.3 1011.2 0.0
23/03:30pm 27.3 20.4 2.4 20 12.2 WNW 28 35 15 19 1011.7 1011.6 0.0
23/03:00pm 27.3 21.6 5.0 24 11.4 NW 24 41 13 22 1011.7 1011.6 0.0
23/02:30pm 25.9 22.2 6.5 29 10.1 WNW 15 24 8 13 1011.7 1011.6 0.0
23/02:00pm 25.9 23.7 8.0 32 9.6 W 9 19 5 10 1011.8 1011.7 0.0
23/01:30pm 25.2 22.3 8.2 34 9.1 W 13 24 7 13 1012.0 1012.0 0.0
23/01:00pm 24.9 21.9 7.5 33 9.2 NW 13 22 7 12 1012.2 1012.2 0.0
23/12:30pm 23.4 21.5 9.0 40 7.8 WSW 9 19 5 10 1012.0 1012.0 0.0
23/12:00pm 22.7 20.0 8.8 41 7.4 NW 13 20 7 11 1012.5 1012.5 0.0
23/11:30am 21.3 18.5 8.6 44 6.7 NNW 13 20 7 11 1012.6 1012.6 0.0
23/11:00am 20.9 18.6 8.9 46 6.4 W 11 19 6 10 1012.7 1012.7 0.0
23/10:30am 19.2 17.9 11.3 60 4.3 S 9 15 5 8 1012.7 1012.7 0.0
23/10:00am 18.1 17.0 12.1 68 3.3 S 9 15 5 8 1012.9 1012.9 0.0
23/09:30am 16.2 15.7 12.0 76 2.3 ESE 6 9 3 5 1013.2 1013.2 0.0
23/09:00am 14.1 14.7 13.0 93 0.6 NNE 2 7 1 4 1013.6 1013.6 0.0
23/08:30am 14.0 14.7 13.5 97 0.3 N 2 7 1 4 1013.7 1013.7 0.0
23/08:00am 13.1 12.3 12.8 98 0.2 ENE 9 11 5 6 1013.5 1013.5 0.0
23/07:30am 13.0 12.1 12.7 98 0.2 NNE 9 11 5 6 1013.2 1013.2 0.0
23/07:00am 12.1 11.0 11.8 98 0.2 NNE 9 11 5 6 1012.9 1012.9 0.0
23/06:30am 11.5 10.7 11.2 98 0.2 NE 6 9 3 5 1012.5 1012.5 0.0
23/06:00am 11.1 10.0 10.8 98 0.2 NE 7 9 4 5 1012.1 1012.1 0.0
23/05:30am 10.3 10.4 10.0 98 0.2 CALM 0 0 0 0 1011.8 1011.7 0.0
23/05:00am 9.8 9.7 9.3 97 0.2 CALM 0 0 0 0 1011.7 1011.6 0.0
23/04:30am 9.5 9.3 9.0 97 0.2 CALM 0 0 0 0 1011.5 1011.4 0.0
23/04:00am 9.5 9.3 9.0 97 0.2 CALM 0 0 0 0 1011.2 1011.1 0.0
23/03:30am 10.0 9.9 9.5 97 0.3 CALM 0 0 0 0 1011.1 1011.0 0.0
23/03:00am 9.8 9.3 9.3 97 0.2 WNW 2 7 1 4 1011.3 1011.2 0.0
23/02:30am 9.3 9.0 8.7 96 0.3 CALM 0 0 0 0 1011.3 1011.2 0.0
23/02:00am 10.7 10.8 10.1 96 0.3 CALM 0 0 0 0 1011.5 1011.4 0.0
23/01:30am 11.5 11.8 10.9 96 0.3 CALM 0 0 0 0 1011.7 1011.6 0.0
23/01:00am 10.6 10.5 9.4 92 0.6 CALM 0 0 0 0 1011.7 1011.6 0.0
23/12:30am 11.5 11.6 10.2 92 0.7 CALM 0 0 0 0 1011.9 1011.9 0.0
23/12:00am 12.1 11.0 10.7 91 0.7 WSW 7 9 4 5 1011.8 1011.7 0.0
 
Date/Time
CDT
Temp
°C
App
Temp
°C
Dew
Point
Rel
Hum
%
Delta-T
°C
Wind Press
QNH
hPa
Press
MSL
hPa
Rain
since 9 am
mm
Dir
 
Spd
km/h
Gust
km/h
Spd
kts
Gust
kts
22/11:30pm 12.8 13.3 11.5 92 0.7 CALM 0 0 0 0 1011.6 1011.5 0.0
22/11:00pm 12.9 11.1 11.0 88 1.0 SW 11 13 6 7 1011.3 1011.2 0.0
22/10:30pm 14.4 13.7 11.9 85 1.4 SW 7 11 4 6 1011.3 1011.2 0.0
22/10:00pm 15.1 12.9 12.2 83 1.6 SW 15 19 8 10 1011.0 1010.9 0.0
22/09:30pm 16.6 14.1 12.4 76 2.3 SW 17 22 9 12 1010.4 1010.3 0.0
22/09:00pm 17.3 14.9 12.8 75 2.5 SW 17 20 9 11 1010.0 1009.9 0.0
22/08:30pm 18.0 15.2 12.7 71 3.0 SW 19 22 10 12 1009.6 1009.5 0.0
22/08:00pm 19.3 15.8 12.1 63 4.0 SW 22 28 12 15 1008.8 1008.7 0.0
22/07:30pm 21.5 17.3 12.4 56 5.2 WSW 26 33 14 18 1008.0 1007.9 0.0
22/07:00pm 23.3 18.0 12.6 51 6.1 WSW 32 37 17 20 1007.2 1007.1 0.0
22/06:30pm 25.0 19.5 12.6 46 7.2 WSW 33 44 18 24 1006.6 1006.5 0.0
22/06:00pm 26.6 20.9 13.0 43 8.0 W 35 46 19 25 1006.3 1006.2 0.0
22/05:30pm 26.7 20.1 12.7 42 8.2 W 39 46 21 25 1006.0 1005.9 0.0
22/05:00pm 28.0 21.1 13.9 42 8.4 W 43 52 23 28 1005.8 1005.7 0.0
22/04:30pm 28.3 21.5 13.0 39 9.1 W 41 50 22 27 1005.4 1005.3 0.0
22/04:00pm 30.0 22.5 12.0 33 10.5 W 43 59 23 32 1005.0 1004.9 0.0
22/03:30pm 30.5 22.1 12.4 33 10.7 WNW 48 67 26 36 1005.2 1005.1 0.0
22/03:29pm 30.3 21.9 12.2 33 10.6 WNW 48 67 26 36 1005.2 1005.1 0.0
22/03:00pm 31.1 23.6 12.0 31 11.3 WNW 43 59 23 32 1005.1 1005.0 0.0
22/02:44pm 31.9 25.2 11.1 28 12.1 WNW 37 57 20 31 1004.7 1004.6 0.0
22/02:30pm 30.2 23.9 11.2 31 11.0 NW 35 48 19 26 1004.9 1004.8 0.0
22/02:16pm 32.3 25.5 12.0 29 12.0 NW 39 57 21 31 1004.9 1004.8 0.0
22/02:00pm 31.3 23.9 11.1 29 11.7 NW 41 54 22 29 1005.1 1005.0 0.0
22/01:36pm 30.6 23.9 11.1 30 11.3 NNW 37 57 20 31 1005.3 1005.2 0.0
22/01:30pm 30.6 23.9 11.1 30 11.3 NNW 37 52 20 28 1005.4 1005.3 0.0
22/01:00pm 31.2 25.6 11.6 30 11.4 NNW 32 50 17 27 1005.8 1005.7 0.0
22/12:59pm 30.0 24.1 10.5 30 11.1 NNW 32 50 17 27 1005.8 1005.7 0.0
22/12:30pm 29.6 23.7 11.2 32 10.6 NNW 33 46 18 25 1006.3 1006.2 0.0
22/12:00pm 28.0 21.1 10.2 33 10.0 NNW 37 54 20 29 1006.8 1006.7 0.0
22/11:32am 27.2 20.9 9.1 32 10.0 NNW 32 50 17 27 1007.1 1007.0 0.0
22/11:30am 27.2 20.8 9.5 33 9.8 NNW 33 50 18 27 1007.0 1006.9 0.0
22/11:07am 25.8 18.2 7.4 31 9.8 N 37 56 20 30 1007.2 1007.1 0.0
22/11:00am 26.3 18.5 8.3 32 9.7 N 39 54 21 29 1007.2 1007.1 0.0
22/10:32am 24.9 18.9 7.1 32 9.3 N 28 46 15 25 1007.4 1007.3 0.0
22/10:30am 24.9 18.5 7.1 32 9.4 N 30 46 16 25 1007.4 1007.3 0.0
22/10:27am 24.4 18.3 6.6 32 9.2 N 28 46 15 25 1007.5 1007.4 0.0
22/10:00am 23.4 19.1 7.9 37 8.2 N 20 35 11 19 1007.3 1007.2 0.0
22/09:30am 21.3 15.2 8.2 43 6.9 NNE 30 43 16 23 1007.5 1007.4 0.0
22/09:00am 19.5 13.8 8.5 49 5.7 NE 28 37 15 20 1007.5 1007.4 0.0
22/08:30am 18.6 14.7 8.6 52 5.2 NE 19 28 10 15 1008.1 1008.0 0.0
22/08:00am 16.4 14.7 10.0 66 3.4 SSE 9 17 5 9 1009.5 1009.4 0.0
22/07:30am 17.3 13.4 7.1 51 5.1 N 17 26 9 14 1009.5 1009.4 0.0
22/07:25am 17.3 12.8 7.1 51 5.1 N 20 26 11 14 1008.9 1008.8 0.0
22/07:00am 16.7 12.3 7.4 54 4.7 ENE 20 28 11 15 1006.8 1006.7 0.0
22/06:30am 15.5 13.6 7.5 59 4.0 E 7 11 4 6 1007.4 1007.3 0.0
22/06:00am 14.8 10.1 7.6 62 3.6 ENE 22 30 12 16 1007.8 1007.7 0.0
22/05:30am 15.7 11.9 5.6 51 4.9 E 15 20 8 11 1008.3 1008.2 0.0
22/05:00am 15.1 12.1 6.1 55 4.3 E 11 17 6 9 1008.5 1008.4 0.0
22/04:30am 14.2 13.4 6.6 60 3.7 CALM 0 0 0 0 1008.9 1008.8 0.0
22/04:00am 14.2 10.4 5.6 56 4.1 E 15 17 8 9 1008.0 1007.9 0.0
22/03:30am 13.9 10.5 6.0 59 3.8 SSE 13 15 7 8 1008.5 1008.4 0.0
22/03:00am 13.8 6.9 6.4 61 3.6 SSW 32 44 17 24 1009.0 1008.9 0.0
22/02:59am 14.6 8.0 6.2 57 4.0 SSW 30 44 16 24 1009.0 1008.9 0.0
22/02:30am 14.8 10.1 5.3 53 4.5 NE 19 24 10 13 1007.8 1007.7 0.0
22/02:00am 14.9 10.2 5.1 52 4.6 NE 19 24 10 13 1007.9 1007.8 0.0
22/01:30am 14.5 11.1 5.8 56 4.2 NE 13 19 7 10 1008.2 1008.1 0.0
22/01:00am 14.0 10.7 6.4 60 3.7 NE 13 15 7 8 1008.8 1008.7 0.0
22/12:30am 13.4 10.8 7.8 69 2.8 NNE 11 13 6 7 1009.7 1009.6 0.0
22/12:00am 13.7 11.8 7.7 67 3.0 NE 7 9 4 5 1010.5 1010.4 0.0
 
Date/Time
CDT
Temp
°C
App
Temp
°C
Dew
Point
Rel
Hum
%
Delta-T
°C
Wind Press
QNH
hPa
Press
MSL
hPa
Rain
since 9 am
mm
Dir
 
Spd
km/h
Gust
km/h
Spd
kts
Gust
kts
21/11:30pm 13.1 11.1 7.3 68 2.8 NE 7 9 4 5 1010.9 1010.8 0.0
21/11:00pm 13.1 11.4 8.2 72 2.4 NE 7 9 4 5 1011.3 1011.2 0.0
21/10:30pm 15.3 13.3 7.3 59 4.0 N 7 7 4 4 1011.8 1011.7 0.0
21/10:00pm 14.5 14.1 8.2 66 3.2 CALM 0 0 0 0 1012.0 1012.0 0.0
21/09:30pm 15.2 14.8 8.2 63 3.5 CALM 0 0 0 0 1011.9 1011.9 0.0
21/09:00pm 15.8 15.0 6.5 54 4.5 CALM 0 0 0 0 1011.8 1011.7 0.0
21/08:30pm 15.3 11.9 6.1 54 4.4 SW 13 15 7 8 1011.4 1011.3 0.0
21/08:00pm 16.6 13.6 6.1 50 5.1 WSW 11 11 6 6 1011.4 1011.3 0.0
21/07:30pm 18.7 14.4 3.3 36 7.2 W 15 17 8 9 1011.4 1011.3 0.0
21/07:00pm 21.3 16.6 3.0 30 8.7 W 17 20 9 11 1011.2 1011.1 0.0
21/06:30pm 21.9 16.7 2.6 28 9.1 W 19 26 10 14 1011.0 1010.9 0.0
21/06:00pm 22.1 16.5 3.7 30 8.9 W 22 30 12 16 1010.8 1010.7 0.0
21/05:30pm 23.1 17.3 4.6 30 9.2 WNW 24 32 13 17 1010.7 1010.6 0.0
21/05:00pm 23.7 18.4 5.1 30 9.3 WNW 22 33 12 18 1010.5 1010.4 0.0

Other Formats:

Comma delimited format used in spreadsheet applications
http://www.bom.gov.au/fwo/IDS60801/IDS60801.94820.axf

JavaScript Object Notation format (JSON) in row-major order
http://www.bom.gov.au/fwo/IDS60801/IDS60801.94820.json